CheckWX is a tool to help pilots better visualize weather data.  It is not intended as a substitute for an official pre-flight weather briefing.

04:24:51 UTC

KPIB TAF
Hattiesburg / Laurel Regional Airport
Hattiesburg-Laurel, Mississippi, USA
KPIB 240614Z 2406/2506 12004KT 6SM BR BKN007 FM240800 00000KT 4SM BR OVC005 FM241000 00000KT 2SM BR OVC002 FM241330 14003KT 5SM BR BKN015 FM241500 17006KT P6SM BKN035 FM241900 15008KT P6SM VCTS BKN035CB

May-24@
06:00 UTC

May-24 @ 06:00 UTC

May-24@
08:00 UTC

May-24 @ 08:00 UTC

TAF KPIB 240614Z 2406/2506 12004KT 6SM BR BKN007

Expired

Wind
  • 120° at 4 KTS
Conditions
Mist
Cloud Levels
  • Broken at 700' AGL

May-24@
08:00 UTC

May-24 @ 08:00 UTC

May-24@
10:00 UTC

May-24 @ 10:00 UTC

FM240800 00000KT 4SM BR OVC005

Expired

Conditions
Mist
Cloud Levels
  • Overcast at 500' AGL

May-24@
10:00 UTC

May-24 @ 10:00 UTC

May-24@
13:30 UTC

May-24 @ 13:30 UTC

FM241000 00000KT 2SM BR OVC002

Expired

Conditions
Mist
Cloud Levels
  • Overcast at 200' AGL

May-24@
13:30 UTC

May-24 @ 13:30 UTC

May-24@
15:00 UTC

May-24 @ 15:00 UTC

FM241330 14003KT 5SM BR BKN015

Expired

Wind
  • 140° at 3 KTS
Conditions
Mist
Cloud Levels
  • Broken at 1,500' AGL

May-24@
15:00 UTC

May-24 @ 15:00 UTC

May-24@
19:00 UTC

May-24 @ 19:00 UTC

FM241500 17006KT P6SM BKN035

Expired

Wind
  • 170° at 6 KTS
Cloud Levels
  • Broken at 3,500' AGL

May-24@
19:00 UTC

May-24 @ 19:00 UTC

May-25@
06:00 UTC

May-25 @ 06:00 UTC

FM241900 15008KT P6SM VCTS BKN035CB

From

From Standard forecast or significant change

Wind
  • 150° at 8 KTS
Conditions
Area Thunderstorm
Cloud Levels
  • Broken at 3,500' AGL